Westville, Ohio
Current Conditions -  °F | °C
As of 8:56 AM on Thursday 23 Oct 2014 (Local Time) from KSGH Reporting Station
Haze Haze  
Wind Chill: 40°   Ceiling: Unl
Heat Index: 40°   Visibility: 3mi
Dew Point: 40°   Wind: 3mph
Humidity: 100%   Direction: 190°S
Pressure: 30.26"   Gusts: NA
Location:  40.1°N, 83.83°W
Report Text: KSGH 231256Z AUTO 19003KT 3SM BR CLR 04/04 A3026 RMK AO2 T00440044 SLP251
Loading
Personal Weather Stations






























Interactive Weather Map
Tropical Storm Tracking
New forecast layout! Learn more

10-Day Weather Forecast

Advertisements
Track Severe Weather on mobile